Terminal Aerodrome Forecast
Issued by NWS

Current Version | Previous Version | Text Only | Print | Product List | Glossary On
Versions: 1 2 3 4 5 6 7 8 9 10 11 12 13 14 15 16
000
FTUS43 KAPX 181100
TAFAPN
TAF
KAPN 181120Z 1812/1912 04008KT P6SM OVC018
     FM181600 06007KT P6SM BKN022
     FM182000 07005KT P6SM SCT028
     FM190100 00000KT P6SM SKC=

USA.gov is the U.S. government's official web portal to all federal, state and local government web resources and services.